Time;durP1;ratioP1;P1;durP2;ratioP2;P2;SDS_P1;SDS_P2;PMS_P1;PMS_P2;Temp;Humidity;BMP_temperature;BMP_pressure;BME280_temperature;BME280_humidity;BME280_pressure;Samples;Min_cycle;Max_cycle;Signal;HPM_P1;HPM_P2
2021/01/16 00:02:10;;;;;;;12.88;7.85;;;;;;;;;;5066344;28;20025;-56
2021/01/16 00:04:36;;;;;;;12.00;7.45;;;;;;;;;;5065460;28;20063;-56
2021/01/16 00:07:02;;;;;;;10.13;6.53;;;;;;;;;;5064207;28;20090;-54
2021/01/16 00:09:28;;;;;;;8.23;5.75;;;;;;;;;;5065361;28;20060;-56
2021/01/16 00:11:54;;;;;;;10.15;6.45;;;;;;;;;;5064782;28;20506;-54
2021/01/16 00:14:20;;;;;;;8.57;6.18;;;;;;;;;;5065715;28;20021;-56
2021/01/16 00:16:47;;;;;;;10.15;6.38;;;;;;;;;;5064579;28;20426;-56
2021/01/16 00:19:14;;;;;;;11.00;7.45;;;;;;;;;;5066042;28;20444;-55
2021/01/16 00:21:40;;;;;;;9.32;6.18;;;;;;;;;;5064454;28;20107;-55
2021/01/16 00:24:06;;;;;;;10.98;6.82;;;;;;;;;;5064537;28;20465;-55
2021/01/16 00:26:33;;;;;;;11.93;7.25;;;;;;;;;;5064953;28;20394;-56
2021/01/16 00:28:59;;;;;;;14.60;8.55;;;;;;;;;;5066312;28;20120;-57
2021/01/16 00:31:25;;;;;;;12.10;7.15;;;;;;;;;;5063661;28;20464;-57
2021/01/16 00:33:52;;;;;;;9.57;6.45;;;;;;;;;;5065580;28;20020;-57
2021/01/16 00:36:19;;;;;;;13.05;8.05;;;;;;;;;;5047626;28;20394;-57
2021/01/16 00:38:45;;;;;;;10.38;6.80;;;;;;;;;;5065856;28;20036;-57
2021/01/16 00:41:11;;;;;;;8.23;5.60;;;;;;;;;;5066544;28;20442;-57
2021/01/16 00:43:37;;;;;;;10.18;6.50;;;;;;;;;;5065720;28;20024;-57
2021/01/16 00:46:04;;;;;;;8.52;5.30;;;;;;;;;;5065845;28;20113;-57
2021/01/16 00:48:30;;;;;;;7.82;5.22;;;;;;;;;;5065657;28;20502;-56
2021/01/16 00:50:57;;;;;;;9.43;6.03;;;;;;;;;;5064552;28;20394;-56
2021/01/16 00:53:23;;;;;;;7.93;5.55;;;;;;;;;;5065754;28;20509;-57
2021/01/16 00:55:53;;;;;;;9.70;6.38;;;;;;;;;;5064558;28;20055;-57
2021/01/16 00:58:21;;;;;;;10.88;6.20;;;;;;;;;;5065340;28;20221;-56
2021/01/16 01:00:49;;;;;;;9.38;5.50;;;;;;;;;;5065215;28;20436;-57
2021/01/16 01:03:15;;;;;;;8.55;5.78;;;;;;;;;;5065479;28;20024;-57
2021/01/16 01:05:41;;;;;;;7.07;5.43;;;;;;;;;;5064847;28;20290;-56
2021/01/16 01:08:08;;;;;;;8.60;5.63;;;;;;;;;;5064817;28;20079;-56
2021/01/16 01:10:37;;;;;;;10.07;7.18;;;;;;;;;;5065253;28;20056;-57
2021/01/16 01:13:04;;;;;;;12.35;8.30;;;;;;;;;;5065395;28;20528;-56
2021/01/16 01:15:29;;;;;;;13.00;7.38;;;;;;;;;;5064933;28;20028;-57
2021/01/16 01:17:57;;;;;;;9.23;6.38;;;;;;;;;;5064793;28;20082;-57
2021/01/16 01:20:24;;;;;;;10.18;6.93;;;;;;;;;;5065017;28;20035;-56
2021/01/16 01:22:50;;;;;;;10.55;6.82;;;;;;;;;;5064890;28;20029;-56
2021/01/16 01:25:17;;;;;;;10.07;7.10;;;;;;;;;;5064617;28;20033;-57
2021/01/16 01:27:44;;;;;;;11.95;7.15;;;;;;;;;;5064096;28;20031;-57
2021/01/16 01:30:10;;;;;;;11.18;7.15;;;;;;;;;;5065522;28;20456;-56
2021/01/16 01:32:36;;;;;;;12.13;6.85;;;;;;;;;;5065034;28;20367;-56
2021/01/16 01:35:03;;;;;;;10.70;6.88;;;;;;;;;;5064212;28;20412;-56
2021/01/16 01:37:29;;;;;;;10.50;6.25;;;;;;;;;;5064394;28;20029;-57
2021/01/16 01:39:55;;;;;;;10.93;7.38;;;;;;;;;;5064441;28;20025;-57
2021/01/16 01:42:23;;;;;;;10.23;6.70;;;;;;;;;;5064731;28;20554;-56
2021/01/16 01:44:49;;;;;;;9.85;6.50;;;;;;;;;;5064900;28;20040;-57
2021/01/16 01:47:16;;;;;;;9.02;6.22;;;;;;;;;;5064479;28;20055;-56
2021/01/16 01:49:42;;;;;;;8.27;5.78;;;;;;;;;;5064168;28;20539;-57
2021/01/16 01:52:10;;;;;;;8.68;5.32;;;;;;;;;;5065148;28;20594;-56
2021/01/16 01:54:36;;;;;;;12.38;7.03;;;;;;;;;;5064381;28;20120;-55
2021/01/16 01:57:03;;;;;;;10.45;6.57;;;;;;;;;;5064269;28;20029;-57
2021/01/16 01:59:34;;;;;;;9.45;6.22;;;;;;;;;;5064553;28;20048;-56
2021/01/16 02:02:01;;;;;;;12.27;6.35;;;;;;;;;;5064616;28;20099;-56
2021/01/16 02:04:29;;;;;;;10.63;7.00;;;;;;;;;;5064266;28;20032;-56
2021/01/16 02:06:55;;;;;;;9.85;6.32;;;;;;;;;;5063005;28;20067;-56
2021/01/16 02:09:22;;;;;;;11.10;6.82;;;;;;;;;;5064292;28;20028;-56
2021/01/16 02:11:48;;;;;;;11.52;6.25;;;;;;;;;;5063801;28;20017;-56
2021/01/16 02:14:14;;;;;;;10.13;6.15;;;;;;;;;;5063933;28;20028;-57
2021/01/16 02:16:44;;;;;;;10.93;6.43;;;;;;;;;;5064692;28;20271;-56
2021/01/16 02:19:11;;;;;;;9.88;6.30;;;;;;;;;;5064589;28;20035;-56
2021/01/16 02:21:39;;;;;;;10.38;6.78;;;;;;;;;;5064635;28;20035;-56
2021/01/16 02:24:10;;;;;;;10.73;5.68;;;;;;;;;;5064144;28;20055;-56
2021/01/16 02:26:35;;;;;;;8.32;5.45;;;;;;;;;;5064559;28;20031;-55
2021/01/16 02:29:05;;;;;;;8.57;4.93;;;;;;;;;;5063939;28;20033;-56
2021/01/16 02:31:33;;;;;;;8.60;5.15;;;;;;;;;;5064224;28;20052;-56
2021/01/16 02:34:00;;;;;;;9.25;5.88;;;;;;;;;;5064158;28;20032;-55
2021/01/16 02:36:32;;;;;;;8.27;5.78;;;;;;;;;;5063762;28;20023;-55
2021/01/16 02:39:17;;;;;;;6.85;4.80;;;;;;;;;;5063510;28;20033;-55
2021/01/16 02:41:50;;;;;;;10.90;5.80;;;;;;;;;;5063885;28;20051;-55
2021/01/16 02:44:36;;;;;;;10.07;5.80;;;;;;;;;;5063975;28;20115;-54
2021/01/16 02:47:21;;;;;;;10.13;5.63;;;;;;;;;;5049819;28;20072;-55
2021/01/16 02:49:50;;;;;;;10.23;5.68;;;;;;;;;;5062143;28;20040;-55
2021/01/16 02:52:19;;;;;;;8.77;5.28;;;;;;;;;;5064818;28;20103;-54
2021/01/16 02:54:45;;;;;;;8.80;5.20;;;;;;;;;;5062694;28;20025;-55
2021/01/16 02:57:12;;;;;;;9.48;5.38;;;;;;;;;;5064443;28;20021;-55
2021/01/16 02:59:40;;;;;;;11.07;6.47;;;;;;;;;;5063342;28;20112;-55
2021/01/16 03:02:07;;;;;;;9.52;5.50;;;;;;;;;;5063677;28;20029;-54
2021/01/16 03:04:33;;;;;;;8.65;5.10;;;;;;;;;;5063378;28;20032;-56
2021/01/16 03:07:00;;;;;;;6.85;4.55;;;;;;;;;;5062521;28;20064;-54
2021/01/16 03:09:28;;;;;;;9.45;6.18;;;;;;;;;;5063715;28;20032;-55
2021/01/16 03:11:55;;;;;;;10.98;6.22;;;;;;;;;;5061601;28;20617;-54
2021/01/16 03:14:23;;;;;;;11.90;7.43;;;;;;;;;;5063705;28;20032;-54
2021/01/16 03:16:58;;;;;;;12.98;8.23;;;;;;;;;;5063549;28;20053;-54
2021/01/16 03:19:30;;;;;;;10.75;6.82;;;;;;;;;;5063715;28;20031;-54
2021/01/16 03:21:56;;;;;;;13.23;7.43;;;;;;;;;;5063433;28;20103;-55
2021/01/16 03:24:22;;;;;;;13.00;7.45;;;;;;;;;;5063342;28;20115;-55
2021/01/16 03:26:49;;;;;;;14.00;8.13;;;;;;;;;;5048282;28;20025;-56
2021/01/16 03:29:15;;;;;;;14.85;7.82;;;;;;;;;;5067288;28;20041;-55
2021/01/16 03:31:41;;;;;;;9.25;6.43;;;;;;;;;;5067571;28;20013;-55
2021/01/16 03:34:07;;;;;;;11.18;6.82;;;;;;;;;;5067145;28;20043;-55
2021/01/16 03:36:33;;;;;;;12.30;6.28;;;;;;;;;;5066678;28;20063;-54
2021/01/16 03:38:59;;;;;;;8.23;5.35;;;;;;;;;;5066305;28;20046;-55
2021/01/16 03:41:26;;;;;;;9.90;6.05;;;;;;;;;;5067219;28;20027;-54
2021/01/16 03:43:53;;;;;;;9.63;5.93;;;;;;;;;;5066624;28;20093;-55
2021/01/16 03:46:19;;;;;;;9.55;5.90;;;;;;;;;;5067014;28;20060;-55
2021/01/16 03:48:46;;;;;;;11.32;5.93;;;;;;;;;;5066284;28;20052;-56
2021/01/16 03:51:14;;;;;;;9.18;5.97;;;;;;;;;;5067358;28;20025;-54
2021/01/16 03:53:40;;;;;;;11.30;6.57;;;;;;;;;;5067180;28;20422;-54
2021/01/16 03:56:06;;;;;;;15.38;7.75;;;;;;;;;;5066572;28;20020;-55
2021/01/16 03:58:33;;;;;;;17.10;8.90;;;;;;;;;;5066579;28;20038;-54
2021/01/16 04:00:59;;;;;;;14.63;8.00;;;;;;;;;;5066477;28;20094;-54
2021/01/16 04:03:25;;;;;;;13.30;7.82;;;;;;;;;;5066753;28;20024;-54
2021/01/16 04:05:51;;;;;;;12.88;8.07;;;;;;;;;;5065264;28;20149;-55
2021/01/16 04:08:20;;;;;;;12.88;8.40;;;;;;;;;;5066378;28;20086;-55
2021/01/16 04:10:46;;;;;;;11.60;7.50;;;;;;;;;;5048524;28;20024;-55
2021/01/16 04:13:12;;;;;;;15.85;9.23;;;;;;;;;;5067049;28;20493;-53
2021/01/16 04:15:38;;;;;;;12.75;8.30;;;;;;;;;;5066349;28;20096;-54
2021/01/16 04:18:04;;;;;;;18.33;10.32;;;;;;;;;;5065998;28;20094;-54
2021/01/16 04:20:30;;;;;;;18.48;11.05;;;;;;;;;;5066219;28;20636;-55
2021/01/16 04:22:56;;;;;;;19.55;11.23;;;;;;;;;;5065786;28;20036;-54
2021/01/16 04:25:22;;;;;;;21.45;11.15;;;;;;;;;;5065269;28;20064;-55
2021/01/16 04:27:48;;;;;;;22.73;12.77;;;;;;;;;;5065658;28;20082;-55
2021/01/16 04:30:15;;;;;;;25.08;12.32;;;;;;;;;;5066234;28;20317;-55
2021/01/16 04:32:42;;;;;;;21.45;11.85;;;;;;;;;;5066477;28;20034;-54
2021/01/16 04:35:08;;;;;;;18.75;10.82;;;;;;;;;;5064947;28;20552;-54
2021/01/16 04:37:34;;;;;;;18.23;10.02;;;;;;;;;;5047538;28;20422;-53
2021/01/16 04:40:00;;;;;;;16.50;9.52;;;;;;;;;;5065890;28;20039;-54
2021/01/16 04:42:26;;;;;;;13.43;8.07;;;;;;;;;;5065906;28;20033;-53
2021/01/16 04:44:53;;;;;;;15.50;9.25;;;;;;;;;;5065552;28;20423;-54
2021/01/16 04:47:27;;;;;;;14.98;8.90;;;;;;;;;;5065355;28;20031;-54
2021/01/16 04:49:53;;;;;;;11.73;7.05;;;;;;;;;;5065249;28;20037;-54
2021/01/16 04:52:21;;;;;;;14.27;7.75;;;;;;;;;;5065454;28;20071;-53
2021/01/16 04:54:48;;;;;;;12.27;7.47;;;;;;;;;;5065366;28;20035;-53
2021/01/16 04:57:14;;;;;;;10.68;6.55;;;;;;;;;;5065487;28;20156;-53
2021/01/16 04:59:41;;;;;;;10.30;6.55;;;;;;;;;;5065946;28;20583;-54
2021/01/16 05:02:10;;;;;;;17.20;8.57;;;;;;;;;;5065436;28;20589;-55
2021/01/16 05:04:39;;;;;;;24.58;12.88;;;;;;;;;;5065096;28;20024;-55
2021/01/16 05:07:06;;;;;;;18.02;9.80;;;;;;;;;;5065454;28;20020;-54
2021/01/16 05:09:34;;;;;;;14.52;7.40;;;;;;;;;;5065270;28;20036;-54
2021/01/16 05:12:18;;;;;;;15.90;8.63;;;;;;;;;;5065209;28;20024;-53
2021/01/16 05:14:59;;;;;;;19.95;10.90;;;;;;;;;;5064982;28;20485;-55
2021/01/16 05:17:26;;;;;;;15.98;9.07;;;;;;;;;;5064898;28;20017;-53
2021/01/16 05:19:52;;;;;;;13.95;7.50;;;;;;;;;;5065145;28;20039;-54
2021/01/16 05:22:19;;;;;;;13.00;7.38;;;;;;;;;;5065166;28;20021;-54
2021/01/16 05:24:46;;;;;;;11.80;7.15;;;;;;;;;;5064821;28;20025;-52
2021/01/16 05:27:13;;;;;;;13.35;7.55;;;;;;;;;;5065579;28;20035;-54
2021/01/16 05:29:43;;;;;;;11.30;7.22;;;;;;;;;;5065101;28;20039;-53
2021/01/16 05:32:09;;;;;;;12.35;7.15;;;;;;;;;;5065283;28;20021;-53
2021/01/16 05:34:35;;;;;;;10.93;6.78;;;;;;;;;;5064948;28;20402;-54
2021/01/16 05:37:01;;;;;;;9.40;6.50;;;;;;;;;;5064371;28;20394;-53
2021/01/16 05:39:31;;;;;;;13.32;7.63;;;;;;;;;;5064622;28;20071;-53
2021/01/16 05:42:01;;;;;;;13.70;7.18;;;;;;;;;;5064527;28;20028;-53
2021/01/16 05:44:27;;;;;;;9.73;5.95;;;;;;;;;;5064728;28;20267;-53
2021/01/16 05:46:53;;;;;;;8.95;5.93;;;;;;;;;;5063675;28;20410;-53
2021/01/16 05:49:21;;;;;;;10.68;6.13;;;;;;;;;;5064240;28;20036;-53
2021/01/16 05:51:48;;;;;;;8.98;5.57;;;;;;;;;;5064584;28;20086;-53
2021/01/16 05:54:14;;;;;;;9.00;5.70;;;;;;;;;;5065222;28;20047;-54
2021/01/16 05:56:40;;;;;;;8.23;5.05;;;;;;;;;;5064945;28;20031;-53
2021/01/16 05:59:11;;;;;;;9.23;5.63;;;;;;;;;;5064430;28;20028;-54
2021/01/16 06:01:38;;;;;;;9.35;6.25;;;;;;;;;;5064130;28;20028;-54
2021/01/16 06:04:04;;;;;;;8.77;5.57;;;;;;;;;;5064409;28;20028;-53
2021/01/16 06:06:35;;;;;;;9.45;5.85;;;;;;;;;;5064552;28;20031;-52
2021/01/16 06:09:03;;;;;;;8.48;5.20;;;;;;;;;;5064197;28;20028;-53
2021/01/16 06:11:37;;;;;;;9.85;6.18;;;;;;;;;;5064450;28;20452;-53
2021/01/16 06:14:04;;;;;;;;;;;;;;;;;;5064718;28;20433;-53
2021/01/16 06:16:30;;;;;;;10.52;6.00;;;;;;;;;;5064038;28;19916;-54
2021/01/16 06:18:57;;;;;;;10.18;5.95;;;;;;;;;;5063817;28;20024;-54
2021/01/16 06:21:26;;;;;;;9.88;6.03;;;;;;;;;;5064446;28;20032;-52
2021/01/16 06:23:54;;;;;;;9.07;5.57;;;;;;;;;;5064027;28;20050;-54
2021/01/16 06:26:21;;;;;;;10.38;5.93;;;;;;;;;;5064340;28;20056;-53
2021/01/16 06:29:00;;;;;;;10.57;6.13;;;;;;;;;;5063756;28;20089;-52
2021/01/16 06:31:26;;;;;;;9.98;5.70;;;;;;;;;;5063942;28;20491;-53
2021/01/16 06:34:10;;;;;;;12.77;6.68;;;;;;;;;;5063894;28;20062;-52
2021/01/16 06:36:37;;;;;;;13.43;7.15;;;;;;;;;;5063483;28;20036;-53
2021/01/16 06:39:07;;;;;;;13.60;6.93;;;;;;;;;;5064066;28;20103;-54
2021/01/16 06:41:34;;;;;;;13.25;7.57;;;;;;;;;;5064080;28;20036;-53
2021/01/16 06:44:00;;;;;;;10.50;6.32;;;;;;;;;;5063537;28;20452;-53
2021/01/16 06:46:44;;;;;;;9.52;5.85;;;;;;;;;;5063997;28;20482;-53
2021/01/16 06:49:21;;;;;;;10.18;5.15;;;;;;;;;;5064010;28;20461;-53
2021/01/16 06:51:52;;;;;;;7.35;4.60;;;;;;;;;;5063906;28;20028;-53
2021/01/16 06:54:24;;;;;;;7.50;4.10;;;;;;;;;;5063924;28;20036;-54
2021/01/16 06:57:10;;;;;;;8.27;4.72;;;;;;;;;;5063770;28;20504;-54
2021/01/16 06:59:37;;;;;;;8.32;4.43;;;;;;;;;;5065750;28;20073;-55
2021/01/16 07:02:21;;;;;;;7.10;4.40;;;;;;;;;;5067690;28;20036;-54
2021/01/16 07:04:51;;;;;;;6.45;4.60;;;;;;;;;;5066612;28;20489;-54
2021/01/16 07:07:20;;;;;;;7.15;4.60;;;;;;;;;;5067148;28;20028;-52
2021/01/16 07:09:46;;;;;;;6.82;4.45;;;;;;;;;;5067334;28;20069;-54
2021/01/16 07:12:13;;;;;;;8.07;5.40;;;;;;;;;;5068341;28;20543;-53
2021/01/16 07:14:41;;;;;;;7.50;4.78;;;;;;;;;;5067267;28;20414;-53
2021/01/16 07:17:07;;;;;;;7.43;5.13;;;;;;;;;;5068803;28;20032;-53
2021/01/16 07:19:34;;;;;;;8.00;5.05;;;;;;;;;;5068715;28;20383;-54
2021/01/16 07:22:00;;;;;;;9.93;5.93;;;;;;;;;;5068541;28;20036;-53
2021/01/16 07:24:26;;;;;;;9.68;5.55;;;;;;;;;;5050925;28;20016;-54
2021/01/16 07:26:53;;;;;;;8.85;5.25;;;;;;;;;;5068808;28;20780;-54
2021/01/16 07:29:20;;;;;;;9.73;5.95;;;;;;;;;;5050039;28;20036;-52
2021/01/16 07:31:46;;;;;;;7.40;5.00;;;;;;;;;;5048658;28;20028;-53
2021/01/16 07:34:14;;;;;;;9.55;6.20;;;;;;;;;;5065211;28;20028;-54
2021/01/16 07:36:40;;;;;;;11.50;6.78;;;;;;;;;;5068164;28;20028;-53
2021/01/16 07:39:08;;;;;;;9.38;5.90;;;;;;;;;;5068340;28;20033;-54
2021/01/16 07:41:35;;;;;;;9.00;5.93;;;;;;;;;;5068108;28;20035;-56
2021/01/16 07:44:01;;;;;;;7.78;4.72;;;;;;;;;;5067839;28;20021;-53
2021/01/16 07:46:29;;;;;;;6.97;4.53;;;;;;;;;;5062008;28;20029;-55
2021/01/16 07:49:00;;;;;;;8.63;4.90;;;;;;;;;;5050339;28;20029;-52
2021/01/16 07:51:32;;;;;;;8.43;5.07;;;;;;;;;;5048194;28;20096;-54
2021/01/16 07:54:02;;;;;;;8.35;5.22;;;;;;;;;;5049566;28;20028;-53
2021/01/16 07:56:36;;;;;;;8.50;5.13;;;;;;;;;;5054525;28;20037;-53
2021/01/16 07:59:08;;;;;;;9.63;6.65;;;;;;;;;;5068259;28;20021;-53
2021/01/16 08:01:52;;;;;;;8.77;5.65;;;;;;;;;;5055316;28;20036;-53
2021/01/16 08:04:38;;;;;;;8.63;5.22;;;;;;;;;;5058001;28;20077;-53
2021/01/16 08:07:08;;;;;;;9.00;5.78;;;;;;;;;;5068385;28;20031;-50
2021/01/16 08:09:41;;;;;;;11.02;6.78;;;;;;;;;;5067136;28;20533;-53
2021/01/16 08:12:08;;;;;;;10.43;6.43;;;;;;;;;;5065090;28;20023;-52
2021/01/16 08:14:34;;;;;;;8.85;5.82;;;;;;;;;;5068051;28;20028;-53
2021/01/16 08:17:01;;;;;;;11.30;6.90;;;;;;;;;;5065194;28;20078;-54
2021/01/16 08:19:32;;;;;;;11.30;6.95;;;;;;;;;;5059268;28;20056;-53
2021/01/16 08:21:59;;;;;;;11.35;7.50;;;;;;;;;;5067568;28;20090;-53
2021/01/16 08:24:30;;;;;;;13.15;8.18;;;;;;;;;;5049320;28;20399;-54
2021/01/16 08:26:57;;;;;;;12.20;8.65;;;;;;;;;;5047699;28;20067;-53
2021/01/16 08:29:23;;;;;;;13.95;8.85;;;;;;;;;;5050660;28;20024;-54
2021/01/16 08:31:49;;;;;;;14.18;9.45;;;;;;;;;;5066008;28;20040;-52
2021/01/16 08:34:34;;;;;;;15.35;8.73;;;;;;;;;;5068030;28;20031;-53
2021/01/16 08:37:07;;;;;;;16.98;8.82;;;;;;;;;;5060556;28;20112;-54
2021/01/16 08:39:33;;;;;;;13.00;7.80;;;;;;;;;;5066347;28;20123;-54
2021/01/16 08:42:03;;;;;;;10.80;7.10;;;;;;;;;;5067794;28;20693;-55
2021/01/16 08:44:52;;;;;;;12.80;7.25;;;;;;;;;;5053298;28;20037;-52
2021/01/16 08:47:19;;;;;;;11.93;7.25;;;;;;;;;;5058933;28;20082;-54
2021/01/16 08:49:45;;;;;;;10.85;7.07;;;;;;;;;;5056923;28;20407;-54
2021/01/16 08:52:11;;;;;;;10.70;6.75;;;;;;;;;;5062557;28;20505;-54
2021/01/16 08:54:38;;;;;;;9.68;6.32;;;;;;;;;;5052742;28;20032;-54
2021/01/16 08:57:10;;;;;;;10.48;6.35;;;;;;;;;;5056228;28;20063;-54
2021/01/16 08:59:38;;;;;;;9.38;6.20;;;;;;;;;;5066107;28;20027;-54
2021/01/16 09:02:05;;;;;;;8.85;5.32;;;;;;;;;;5065978;28;20055;-55
2021/01/16 09:04:33;;;;;;;7.47;4.95;;;;;;;;;;5066464;28;20020;-54
2021/01/16 09:07:12;;;;;;;9.40;5.80;;;;;;;;;;5065617;28;20059;-54
2021/01/16 09:09:38;;;;;;;7.57;4.80;;;;;;;;;;5054662;28;20029;-54
2021/01/16 09:12:05;;;;;;;8.30;5.43;;;;;;;;;;5046446;28;20029;-53
2021/01/16 09:14:31;;;;;;;9.32;5.80;;;;;;;;;;5046045;28;20025;-54
2021/01/16 09:17:13;;;;;;;8.50;5.25;;;;;;;;;;5046343;28;20487;-54
2021/01/16 09:19:40;;;;;;;8.18;5.20;;;;;;;;;;5045718;28;20037;-54
2021/01/16 09:22:19;;;;;;;8.30;5.13;;;;;;;;;;5045713;28;20111;-54
2021/01/16 09:24:45;;;;;;;7.80;5.45;;;;;;;;;;5046335;28;20053;-53
2021/01/16 09:27:24;;;;;;;6.80;4.35;;;;;;;;;;5046674;28;20110;-54
2021/01/16 09:29:50;;;;;;;7.65;5.03;;;;;;;;;;5045509;28;20029;-54
2021/01/16 09:32:28;;;;;;;6.65;4.25;;;;;;;;;;5061233;28;20454;-53
2021/01/16 09:34:55;;;;;;;6.60;4.15;;;;;;;;;;5065185;28;20029;-54
2021/01/16 09:37:35;;;;;;;8.65;5.03;;;;;;;;;;5065573;28;20032;-54
2021/01/16 09:40:13;;;;;;;6.53;4.00;;;;;;;;;;5065613;28;20029;-53
2021/01/16 09:42:44;;;;;;;7.32;4.15;;;;;;;;;;5065560;28;20047;-53
2021/01/16 09:45:11;;;;;;;6.60;4.18;;;;;;;;;;5063055;28;20432;-55
2021/01/16 09:47:41;;;;;;;6.20;3.95;;;;;;;;;;5052841;28;20094;-54
2021/01/16 09:50:11;;;;;;;6.63;4.78;;;;;;;;;;5064506;28;20115;-53
2021/01/16 09:52:44;;;;;;;5.82;4.00;;;;;;;;;;5065095;28;20158;-54
2021/01/16 09:55:20;;;;;;;6.00;3.88;;;;;;;;;;5066029;28;20017;-54
2021/01/16 09:57:46;;;;;;;7.28;4.43;;;;;;;;;;5064867;28;20074;-55
2021/01/16 10:00:16;;;;;;;7.82;4.90;;;;;;;;;;5065929;28;20028;-55
2021/01/16 10:02:43;;;;;;;6.05;4.13;;;;;;;;;;5065298;28;20162;-55
2021/01/16 10:05:29;;;;;;;8.50;5.20;;;;;;;;;;5065367;28;20149;-54
2021/01/16 10:07:56;;;;;;;8.70;4.18;;;;;;;;;;5047948;28;20433;-54
2021/01/16 10:10:22;;;;;;;7.45;4.40;;;;;;;;;;5065321;28;20025;-55
2021/01/16 10:12:49;;;;;;;7.43;4.30;;;;;;;;;;5065029;28;20117;-55
2021/01/16 10:15:17;;;;;;;6.20;3.72;;;;;;;;;;5065007;28;20031;-53
2021/01/16 10:17:44;;;;;;;5.40;3.42;;;;;;;;;;5061778;28;20035;-53
2021/01/16 10:20:16;;;;;;;4.40;2.90;;;;;;;;;;5057153;28;20040;-53
2021/01/16 10:22:42;;;;;;;5.82;3.15;;;;;;;;;;5045459;28;20095;-54
2021/01/16 10:25:12;;;;;;;4.20;2.90;;;;;;;;;;5045185;28;20029;-54
2021/01/16 10:27:41;;;;;;;4.18;2.83;;;;;;;;;;5044773;28;20296;-54
2021/01/16 10:30:11;;;;;;;3.30;2.60;;;;;;;;;;5062787;28;20031;-50
2021/01/16 10:32:38;;;;;;;3.00;2.10;;;;;;;;;;5064235;28;20158;-51
2021/01/16 10:35:04;;;;;;;3.90;2.60;;;;;;;;;;5070723;28;20397;-54
2021/01/16 10:37:37;;;;;;;3.78;2.58;;;;;;;;;;5069424;28;20524;-55
2021/01/16 10:40:04;;;;;;;5.32;3.60;;;;;;;;;;5051281;28;20032;-55
2021/01/16 10:42:39;;;;;;;5.45;3.00;;;;;;;;;;5071199;28;20405;-54
2021/01/16 10:45:06;;;;;;;5.72;3.17;;;;;;;;;;5071704;28;20457;-53
2021/01/16 10:47:33;;;;;;;17.50;6.65;;;;;;;;;;5070581;28;20032;-54
2021/01/16 10:50:25;;;;;;;40.70;11.93;;;;;;;;;;5069642;28;20032;-54
2021/01/16 10:53:04;;;;;;;25.15;8.38;;;;;;;;;;5063076;28;20075;-53
2021/01/16 10:55:50;;;;;;;18.02;7.40;;;;;;;;;;5064173;28;20033;-53
2021/01/16 10:58:26;;;;;;;18.13;7.40;;;;;;;;;;5062882;28;20449;-54
2021/01/16 11:00:55;;;;;;;14.75;6.55;;;;;;;;;;5073854;28;20059;-53
2021/01/16 11:03:26;;;;;;;15.60;6.50;;;;;;;;;;5083540;28;20032;-53
2021/01/16 11:05:53;;;;;;;12.95;5.97;;;;;;;;;;5084473;28;20035;-53
2021/01/16 11:08:26;;;;;;;11.23;5.43;;;;;;;;;;5090933;28;20035;-52
2021/01/16 11:10:52;;;;;;;37.58;14.45;;;;;;;;;;5090260;28;20055;-53
2021/01/16 11:13:23;;;;;;;32.85;13.35;;;;;;;;;;5086917;28;20071;-50
2021/01/16 11:15:53;;;;;;;24.25;10.60;;;;;;;;;;5090508;28;20047;-53
2021/01/16 11:18:32;;;;;;;21.38;9.73;;;;;;;;;;5083623;28;20416;-52
2021/01/16 11:21:01;;;;;;;24.73;10.48;;;;;;;;;;5080707;28;20197;-54
2021/01/16 11:23:27;;;;;;;25.13;9.55;;;;;;;;;;5068364;28;20017;-53
2021/01/16 11:25:53;;;;;;;21.80;9.15;;;;;;;;;;5070274;28;20036;-51
2021/01/16 11:28:26;;;;;;;21.10;9.20;;;;;;;;;;5071106;28;20564;-49
2021/01/16 11:31:05;;;;;;;23.52;8.45;;;;;;;;;;5066944;28;20021;-50
2021/01/16 11:33:33;;;;;;;23.35;8.48;;;;;;;;;;5050899;28;20124;-52
2021/01/16 11:36:08;;;;;;;21.33;8.15;;;;;;;;;;5050634;28;20033;-53
2021/01/16 11:38:50;;;;;;;20.83;8.45;;;;;;;;;;5067960;28;20040;-50
2021/01/16 11:41:36;;;;;;;18.40;7.20;;;;;;;;;;5058058;28;20040;-50
2021/01/16 11:44:02;;;;;;;12.02;5.65;;;;;;;;;;5069703;28;20513;-54
2021/01/16 11:46:28;;;;;;;14.95;6.47;;;;;;;;;;5065359;28;20036;-52
2021/01/16 11:48:54;;;;;;;19.92;7.95;;;;;;;;;;5066096;28;20017;-49
2021/01/16 11:51:20;;;;;;;22.17;7.35;;;;;;;;;;5066310;28;20477;-49
2021/01/16 11:53:51;;;;;;;19.00;6.95;;;;;;;;;;5046111;28;20045;-54
2021/01/16 11:56:21;;;;;;;13.23;5.85;;;;;;;;;;5046969;28;20021;-52
2021/01/16 11:58:49;;;;;;;11.25;4.68;;;;;;;;;;5064621;28;20036;-52
2021/01/16 12:01:15;;;;;;;11.57;4.72;;;;;;;;;;5066758;28;20028;-53
2021/01/16 12:03:42;;;;;;;14.38;6.05;;;;;;;;;;5066755;28;20556;-52
2021/01/16 12:06:12;;;;;;;14.40;5.47;;;;;;;;;;5065015;28;20068;-52
2021/01/16 12:08:41;;;;;;;12.02;5.10;;;;;;;;;;5064072;28;20037;-52
2021/01/16 12:11:08;;;;;;;11.50;5.13;;;;;;;;;;5065438;28;20067;-51
2021/01/16 12:13:34;;;;;;;16.05;6.78;;;;;;;;;;5066196;28;20032;-53
2021/01/16 12:16:00;;;;;;;14.05;6.43;;;;;;;;;;5065303;28;20035;-51
2021/01/16 12:18:27;;;;;;;9.40;4.88;;;;;;;;;;5066793;28;20032;-54
2021/01/16 12:20:54;;;;;;;17.13;7.82;;;;;;;;;;5067773;28;20060;-53
2021/01/16 12:23:21;;;;;;;20.33;8.15;;;;;;;;;;5063640;28;20028;-51
2021/01/16 12:25:53;;;;;;;18.15;7.68;;;;;;;;;;5065017;28;20379;-53
2021/01/16 12:28:26;;;;;;;13.18;6.32;;;;;;;;;;5067186;28;20036;-49
2021/01/16 12:30:52;;;;;;;9.55;4.65;;;;;;;;;;5067642;28;20052;-48
2021/01/16 12:33:22;;;;;;;11.38;5.05;;;;;;;;;;5066968;28;20027;-51
2021/01/16 12:35:48;;;;;;;9.68;5.03;;;;;;;;;;5060433;28;20402;-49
2021/01/16 12:38:14;;;;;;;13.10;6.03;;;;;;;;;;5066422;28;20036;-50
2021/01/16 12:40:40;;;;;;;10.82;5.72;;;;;;;;;;5067261;28;20025;-49
2021/01/16 12:43:13;;;;;;;10.15;4.97;;;;;;;;;;5066545;28;20036;-49
2021/01/16 12:45:39;;;;;;;8.25;4.00;;;;;;;;;;5055003;28;20055;-49
2021/01/16 12:48:06;;;;;;;6.95;3.83;;;;;;;;;;5064795;28;20032;-49
2021/01/16 12:50:32;;;;;;;9.50;4.78;;;;;;;;;;5055528;28;20108;-49
2021/01/16 12:52:58;;;;;;;9.02;5.93;;;;;;;;;;5064698;28;20121;-48
2021/01/16 12:55:26;;;;;;;9.93;5.13;;;;;;;;;;5067121;28;20090;-50
2021/01/16 12:57:53;;;;;;;7.30;4.65;;;;;;;;;;5044994;28;20029;-49
2021/01/16 13:00:22;;;;;;;9.70;5.63;;;;;;;;;;5059860;28;20116;-49
2021/01/16 13:02:54;;;;;;;10.93;5.70;;;;;;;;;;5066297;28;20033;-53
2021/01/16 13:05:24;;;;;;;9.98;5.78;;;;;;;;;;5063682;28;20090;-50
2021/01/16 13:07:51;;;;;;;10.02;5.25;;;;;;;;;;5059884;28;20529;-50
2021/01/16 13:10:17;;;;;;;9.50;5.47;;;;;;;;;;5062489;28;20043;-48
2021/01/16 13:12:44;;;;;;;15.57;7.50;;;;;;;;;;5059496;28;20033;-53
2021/01/16 13:15:10;;;;;;;23.17;8.70;;;;;;;;;;5065593;28;20020;-48
2021/01/16 13:17:43;;;;;;;29.35;10.52;;;;;;;;;;5060911;28;20063;-48
2021/01/16 13:20:10;;;;;;;28.10;11.25;;;;;;;;;;5059591;28;20040;-47
2021/01/16 13:22:36;;;;;;;21.77;8.85;;;;;;;;;;5064771;28;20115;-47
2021/01/16 13:25:06;;;;;;;21.83;10.05;;;;;;;;;;5064866;28;20086;-47
2021/01/16 13:27:34;;;;;;;18.67;8.73;;;;;;;;;;5052372;28;20033;-46
2021/01/16 13:30:07;;;;;;;14.55;7.30;;;;;;;;;;5060272;28;20505;-47
2021/01/16 13:32:33;;;;;;;13.07;6.30;;;;;;;;;;5063909;28;20056;-47
2021/01/16 13:35:00;;;;;;;10.10;5.68;;;;;;;;;;5063128;28;20537;-47
2021/01/16 13:37:27;;;;;;;8.40;4.72;;;;;;;;;;5050889;28;20029;-47
2021/01/16 13:39:53;;;;;;;8.30;4.70;;;;;;;;;;5050779;28;20029;-47
2021/01/16 13:42:23;;;;;;;7.72;4.70;;;;;;;;;;5064339;28;20112;-47
2021/01/16 13:44:57;;;;;;;7.57;4.82;;;;;;;;;;5044254;28;20117;-48
2021/01/16 13:47:23;;;;;;;;;;;;;;;;;;5044774;28;20033;-49
2021/01/16 13:49:50;;;;;;;6.25;3.97;;;;;;;;;;5060256;28;19924;-47
2021/01/16 13:52:17;;;;;;;6.07;4.00;;;;;;;;;;5063155;28;20040;-48
2021/01/16 13:54:45;;;;;;;6.30;4.00;;;;;;;;;;5064899;28;20445;-48
2021/01/16 13:57:18;;;;;;;9.00;4.68;;;;;;;;;;5064606;28;20128;-47
2021/01/16 13:59:52;;;;;;;5.68;4.07;;;;;;;;;;5062844;28;20502;-47
2021/01/16 14:02:19;;;;;;;5.07;3.80;;;;;;;;;;5062026;28;20441;-47
2021/01/16 14:04:46;;;;;;;7.63;5.20;;;;;;;;;;5064548;28;20043;-50
2021/01/16 14:07:22;;;;;;;5.80;4.35;;;;;;;;;;5065186;28;20055;-49
2021/01/16 14:09:48;;;;;;;5.43;4.15;;;;;;;;;;5062347;28;20573;-48
2021/01/16 14:12:15;;;;;;;6.70;4.38;;;;;;;;;;5065084;28;20058;-48
2021/01/16 14:14:43;;;;;;;5.53;3.80;;;;;;;;;;5058313;28;20124;-48
2021/01/16 14:17:12;;;;;;;8.15;3.55;;;;;;;;;;5053912;28;20024;-50
2021/01/16 14:19:39;;;;;;;5.07;3.67;;;;;;;;;;5062628;28;20029;-48
2021/01/16 14:22:07;;;;;;;5.28;3.80;;;;;;;;;;5060487;28;20036;-48
2021/01/16 14:24:34;;;;;;;5.25;3.65;;;;;;;;;;5055952;28;20293;-48
2021/01/16 14:27:02;;;;;;;5.03;3.55;;;;;;;;;;5063880;28;20036;-49
2021/01/16 14:29:29;;;;;;;5.70;3.63;;;;;;;;;;5058243;28;20032;-48
2021/01/16 14:31:55;;;;;;;5.03;3.70;;;;;;;;;;5055622;28;20385;-48
2021/01/16 14:34:21;;;;;;;5.90;3.97;;;;;;;;;;5048163;28;20428;-48
2021/01/16 14:36:56;;;;;;;6.35;4.10;;;;;;;;;;5057779;28;20272;-47
2021/01/16 14:39:24;;;;;;;6.55;4.00;;;;;;;;;;5055870;28;20509;-49
2021/01/16 14:41:51;;;;;;;5.80;3.63;;;;;;;;;;5058956;28;20033;-49
2021/01/16 14:44:24;;;;;;;7.20;4.05;;;;;;;;;;5059079;28;20031;-48
2021/01/16 14:46:53;;;;;;;4.70;3.67;;;;;;;;;;5057381;28;20029;-49